Time;durP1;ratioP1;P1;durP2;ratioP2;P2;SDS_P1;SDS_P2;PMS_P1;PMS_P2;Temp;Humidity;BMP_temperature;BMP_pressure;BME280_temperature;BME280_humidity;BME280_pressure;Samples;Min_cycle;Max_cycle;Signal;HPM_P1;HPM_P2
2021/08/11 00:00:29;;;;;;;8.95;6.80;;;;;;;14.65;100.00;100874.19;3574634;40;20077;-45
2021/08/11 00:02:56;;;;;;;8.57;7.10;;;;;;;14.56;100.00;100880.91;3574942;40;20037;-44
2021/08/11 00:05:24;;;;;;;10.35;7.50;;;;;;;14.52;100.00;100890.34;3574775;40;20182;-47
2021/08/11 00:07:52;;;;;;;11.05;8.10;;;;;;;14.58;100.00;100892.13;3574709;40;20060;-44
2021/08/11 00:10:19;;;;;;;11.48;8.13;;;;;;;14.49;100.00;100893.72;3574761;40;20125;-43
2021/08/11 00:12:46;;;;;;;12.32;7.80;;;;;;;14.55;100.00;100887.78;3577333;40;20315;-44
2021/08/11 00:15:14;;;;;;;10.48;7.55;;;;;;;14.45;100.00;100893.63;3577744;40;20130;-45
2021/08/11 00:17:41;;;;;;;11.20;7.97;;;;;;;14.47;100.00;100892.81;3575037;40;20115;-43
2021/08/11 00:20:09;;;;;;;10.82;8.20;;;;;;;14.42;100.00;100891.00;3574727;40;20344;-45
2021/08/11 00:22:36;;;;;;;10.68;8.00;;;;;;;14.39;100.00;100894.41;3574760;40;20081;-45
2021/08/11 00:25:04;;;;;;;11.45;8.63;;;;;;;14.45;100.00;100893.63;3574533;40;20091;-44
2021/08/11 00:27:31;;;;;;;12.68;7.95;;;;;;;14.52;100.00;100903.22;3574374;40;20068;-44
2021/08/11 00:30:00;;;;;;;11.65;8.52;;;;;;;14.32;100.00;100900.31;3574506;40;20427;-46
2021/08/11 00:32:28;;;;;;;14.90;9.88;;;;;;;14.37;100.00;100902.94;3574283;40;20085;-43
2021/08/11 00:34:55;;;;;;;11.40;9.13;;;;;;;14.25;100.00;100889.06;3574108;40;20052;-44
2021/08/11 00:37:22;;;;;;;13.43;9.43;;;;;;;14.33;100.00;100899.50;3574387;40;20431;-43
2021/08/11 00:39:49;;;;;;;16.52;10.43;;;;;;;14.46;100.00;100901.38;3574525;40;20077;-45
2021/08/11 00:42:16;;;;;;;16.65;10.95;;;;;;;14.42;100.00;100902.19;3573922;40;20373;-44
2021/08/11 00:44:43;;;;;;;14.10;10.73;;;;;;;14.39;100.00;100907.31;3574455;40;20060;-45
2021/08/11 00:47:10;;;;;;;15.65;10.88;;;;;;;14.39;100.00;100901.28;3574310;40;20084;-44
2021/08/11 00:49:41;;;;;;;16.58;11.32;;;;;;;14.40;100.00;100906.44;3574373;40;20081;-44
2021/08/11 00:52:08;;;;;;;14.65;10.88;;;;;;;14.41;100.00;100905.59;3574779;40;20081;-43
2021/08/11 00:54:36;;;;;;;25.13;11.35;;;;;;;14.15;100.00;100902.69;3574334;40;20120;-44
2021/08/11 00:57:08;;;;;;;19.35;11.60;;;;;;;14.34;100.00;100906.38;3574244;40;20060;-43
2021/08/11 00:59:38;;;;;;;21.02;11.13;;;;;;;14.38;100.00;100904.72;3573977;40;20081;-45
2021/08/11 01:02:06;;;;;;;15.05;10.00;;;;;;;14.43;100.00;100908.22;3574150;40;20113;-43
2021/08/11 01:04:34;;;;;;;21.48;10.98;;;;;;;14.57;100.00;100913.59;3574104;40;20084;-44
2021/08/11 01:07:03;;;;;;;34.58;12.27;;;;;;;14.36;100.00;100911.53;3574057;40;20065;-44
2021/08/11 01:09:32;;;;;;;16.33;11.63;;;;;;;14.41;100.00;100907.31;3573664;40;20045;-47
2021/08/11 01:11:59;;;;;;;19.30;11.52;;;;;;;14.39;100.00;100909.00;3573971;40;20049;-44
2021/08/11 01:14:26;;;;;;;16.83;10.93;;;;;;;14.31;100.00;100918.34;3573860;40;20085;-45
2021/08/11 01:16:53;;;;;;;13.15;10.70;;;;;;;14.22;100.00;100926.78;3573508;40;20048;-48
2021/08/11 01:19:20;;;;;;;18.30;11.65;;;;;;;14.22;100.00;100924.22;3573783;40;20052;-43
2021/08/11 01:22:06;;;;;;;15.48;10.50;;;;;;;14.33;100.00;100927.84;3573953;40;20060;-47
2021/08/11 01:24:57;;;;;;;15.75;10.73;;;;;;;14.39;100.00;100930.50;3574374;40;20053;-46
2021/08/11 01:27:56;;;;;;;21.67;12.57;;;;;;;14.63;100.00;100929.13;3573893;40;20065;-43
2021/08/11 01:30:47;;;;;;;16.13;12.88;;;;;;;14.59;100.00;100930.78;3573930;40;20044;-45
2021/08/11 01:33:45;;;;;;;16.20;13.07;;;;;;;14.56;100.00;100940.16;3573867;40;20081;-44
2021/08/11 01:36:31;;;;;;;18.08;13.50;;;;;;;14.51;100.00;100935.84;3573675;40;20471;-47
2021/08/11 01:39:01;;;;;;;;;;;;;;;14.32;100.00;100931.22;3581461;40;20049;-44
2021/08/11 01:41:43;;;;;;;17.75;13.88;;;;;;;14.48;100.00;100937.50;3573956;40;19973;-43
2021/08/11 01:44:11;;;;;;;17.67;13.55;;;;;;;14.41;100.00;100933.94;3573898;40;20093;-46
2021/08/11 01:46:44;;;;;;;16.50;12.88;;;;;;;14.32;100.00;100935.53;3573970;40;20097;-46
2021/08/11 01:49:14;;;;;;;21.60;15.27;;;;;;;14.49;100.00;100936.66;3574131;40;20068;-45
2021/08/11 01:51:46;;;;;;;17.45;13.95;;;;;;;14.57;100.00;100937.63;3574030;40;20434;-45
2021/08/11 01:54:14;;;;;;;19.23;14.02;;;;;;;14.52;100.00;100935.00;3575292;40;20053;-47
2021/08/11 01:56:43;;;;;;;19.55;14.18;;;;;;;14.47;100.00;100943.50;3575321;40;20085;-48
2021/08/11 01:59:11;;;;;;;16.60;14.07;;;;;;;14.51;100.00;100940.13;3575031;40;20047;-44
2021/08/11 02:01:40;;;;;;;18.10;14.68;;;;;;;14.47;100.00;100934.03;3575594;40;20081;-43
2021/08/11 02:04:09;;;;;;;19.42;14.23;;;;;;;14.45;100.00;100932.28;3575379;40;20052;-44
2021/08/11 02:06:38;;;;;;;16.63;14.00;;;;;;;14.60;100.00;100937.66;3575169;40;20053;-45
2021/08/11 02:09:05;;;;;;;18.20;14.82;;;;;;;14.42;100.00;100942.53;3575445;40;20056;-45
2021/08/11 02:11:38;;;;;;;20.40;14.35;;;;;;;14.61;100.00;100935.97;3575109;40;20081;-44
2021/08/11 02:14:07;;;;;;;16.25;12.98;;;;;;;14.73;100.00;100936.97;3575469;40;20061;-45
2021/08/11 02:16:34;;;;;;;18.35;14.05;;;;;;;14.75;100.00;100937.00;3575175;40;20053;-44
2021/08/11 02:19:01;;;;;;;17.08;13.88;;;;;;;14.74;100.00;100940.41;3575121;40;20053;-45
2021/08/11 02:21:28;;;;;;;17.38;13.65;;;;;;;14.80;100.00;100945.66;3575376;40;20057;-44
2021/08/11 02:23:56;;;;;;;18.38;14.40;;;;;;;14.76;100.00;100949.91;3575362;40;20553;-45
2021/08/11 02:26:50;;;;;;;17.02;13.48;;;;;;;14.64;100.00;100946.31;3575230;40;20088;-44
2021/08/11 02:29:40;;;;;;;17.83;13.43;;;;;;;14.60;100.00;100944.53;3575175;40;20057;-44
2021/08/11 02:32:24;;;;;;;22.75;15.25;;;;;;;14.46;100.00;100944.31;3575633;40;20061;-44
2021/08/11 02:35:09;;;;;;;20.90;16.08;;;;;;;14.46;100.00;100952.91;3575164;40;20039;-45
2021/08/11 02:37:46;;;;;;;19.73;15.63;;;;;;;14.55;100.00;100946.19;3574967;40;20447;-44
2021/08/11 02:40:22;;;;;;;19.00;15.80;;;;;;;14.55;100.00;100948.75;3574966;40;20072;-44
2021/08/11 02:42:58;;;;;;;;;;;;;;;14.41;100.00;100946.81;3575743;40;20053;-44
2021/08/11 02:45:29;;;;;;;19.95;15.27;;;;;;;14.66;100.00;100945.50;3574911;40;19958;-44
2021/08/11 02:47:59;;;;;;;23.08;15.25;;;;;;;14.61;100.00;100947.16;3574732;40;20061;-46
2021/08/11 02:50:26;;;;;;;23.08;15.75;;;;;;;14.69;100.00;100954.97;3574767;40;20444;-43
2021/08/11 02:52:55;;;;;;;26.67;16.30;;;;;;;14.33;100.00;100950.13;3574081;40;20425;-43
2021/08/11 02:55:22;;;;;;;22.20;16.13;;;;;;;14.33;100.00;100961.31;3574085;40;20052;-44
2021/08/11 02:57:50;;;;;;;20.70;15.73;;;;;;;14.43;100.00;100959.75;3574711;40;20041;-44
2021/08/11 03:00:18;;;;;;;21.20;16.65;;;;;;;14.35;100.00;100962.19;3574978;40;20311;-44
2021/08/11 03:02:45;;;;;;;17.73;14.88;;;;;;;14.58;100.00;100959.13;3574928;40;20061;-44
2021/08/11 03:05:15;;;;;;;22.83;16.30;;;;;;;14.54;100.00;100967.66;3574001;40;20056;-45
2021/08/11 03:07:43;;;;;;;24.65;16.00;;;;;;;14.58;100.00;100969.44;3574836;40;20089;-45
2021/08/11 03:10:11;;;;;;;20.33;14.65;;;;;;;14.37;100.00;100962.22;3574817;40;20040;-44
2021/08/11 03:12:39;;;;;;;16.85;14.40;;;;;;;14.43;100.00;100960.59;3574741;40;20068;-47
2021/08/11 03:15:07;;;;;;;18.23;14.45;;;;;;;14.54;100.00;100965.94;3575075;40;20053;-44
2021/08/11 03:17:34;;;;;;;21.88;15.52;;;;;;;14.34;100.00;100963.06;3574708;40;20064;-44
2021/08/11 03:20:01;;;;;;;22.83;16.23;;;;;;;14.34;100.00;100963.06;3582150;40;20335;-44
2021/08/11 03:22:28;;;;;;;20.30;16.45;;;;;;;14.43;100.00;100965.75;3584691;40;20072;-44
2021/08/11 03:24:55;;;;;;;19.60;15.35;;;;;;;14.47;100.00;100962.38;3584925;40;20084;-44
2021/08/11 03:27:22;;;;;;;20.65;16.30;;;;;;;14.50;100.00;100962.44;3584599;40;20076;-44
2021/08/11 03:29:49;;;;;;;26.00;17.77;;;;;;;14.18;100.00;100964.50;3584759;40;20335;-44
2021/08/11 03:32:17;;;;;;;20.60;16.90;;;;;;;14.30;100.00;100952.69;3584674;40;20057;-47
2021/08/11 03:34:44;;;;;;;21.98;17.63;;;;;;;13.98;100.00;100969.34;3584589;40;20048;-44
2021/08/11 03:37:14;;;;;;;22.63;17.58;;;;;;;14.16;100.00;100962.78;3584508;40;20073;-45
2021/08/11 03:39:44;;;;;;;26.25;18.60;;;;;;;14.07;100.00;100957.47;3584938;40;20045;-44
2021/08/11 03:42:11;;;;;;;25.48;17.95;;;;;;;14.17;100.00;100967.06;3584545;40;20084;-45
2021/08/11 03:44:38;;;;;;;24.73;17.75;;;;;;;14.16;100.00;100966.22;3583684;40;20050;-44
2021/08/11 03:47:05;;;;;;;27.67;18.60;;;;;;;14.02;100.00;100966.00;3583671;40;20063;-43
2021/08/11 03:49:32;;;;;;;27.15;19.05;;;;;;;14.16;100.00;100961.06;3584125;40;20076;-43
2021/08/11 03:51:59;;;;;;;25.40;18.00;;;;;;;14.21;100.00;100962.00;3584895;40;20084;-44
2021/08/11 03:54:26;;;;;;;24.90;18.73;;;;;;;14.13;100.00;100965.28;3584734;40;20092;-43
2021/08/11 03:56:53;;;;;;;25.00;18.27;;;;;;;13.99;100.00;100954.78;3584740;40;20084;-44
2021/08/11 03:59:20;;;;;;;27.50;20.58;;;;;;;14.08;100.00;100961.78;3584408;40;20056;-44
2021/08/11 04:01:51;;;;;;;26.50;20.02;;;;;;;14.14;100.00;100962.75;3584387;40;20056;-45
2021/08/11 04:04:18;;;;;;;29.50;17.85;;;;;;;14.29;100.00;100974.13;3584460;40;20625;-45
2021/08/11 04:06:45;;;;;;;21.95;17.65;;;;;;;14.16;100.00;100971.38;3584474;40;20085;-44
2021/08/11 04:09:12;;;;;;;25.02;17.80;;;;;;;14.25;100.00;100971.50;3583361;40;20086;-44
2021/08/11 04:11:39;;;;;;;26.25;18.45;;;;;;;14.41;100.00;100972.59;3584430;40;20084;-44
2021/08/11 04:14:06;;;;;;;26.63;18.45;;;;;;;14.32;100.00;100987.91;3584083;40;20048;-45
2021/08/11 04:16:33;;;;;;;25.15;18.50;;;;;;;14.09;100.00;100990.13;3581653;40;20075;-44
2021/08/11 04:19:00;;;;;;;35.08;17.83;;;;;;;14.15;100.00;100995.41;3583867;40;20044;-44
2021/08/11 04:21:27;;;;;;;34.70;18.27;;;;;;;14.19;100.00;100992.03;3584549;40;20092;-46
2021/08/11 04:23:54;;;;;;;24.42;16.80;;;;;;;14.06;100.00;100995.25;3584517;40;20450;-45
2021/08/11 04:26:21;;;;;;;29.52;18.30;;;;;;;14.02;100.00;100996.03;3584004;40;20053;-44
2021/08/11 04:28:48;;;;;;;24.77;18.42;;;;;;;14.11;100.00;100996.19;3584364;40;20049;-46
2021/08/11 04:31:15;;;;;;;32.30;18.27;;;;;;;14.16;100.00;100999.69;3584383;40;20484;-45
2021/08/11 04:33:42;;;;;;;26.00;17.88;;;;;;;14.14;100.00;100995.34;3584170;40;20133;-45
2021/08/11 04:36:09;;;;;;;25.40;18.70;;;;;;;14.38;100.00;101002.63;3584535;40;20044;-43
2021/08/11 04:38:36;;;;;;;26.25;17.38;;;;;;;14.34;100.00;100998.25;3584436;40;20077;-47
2021/08/11 04:41:03;;;;;;;29.38;18.58;;;;;;;13.85;100.00;101006.03;3584182;40;20135;-44
2021/08/11 04:43:30;;;;;;;26.45;18.75;;;;;;;14.23;100.00;101006.66;3584240;40;20058;-45
2021/08/11 04:45:57;;;;;;;24.58;17.67;;;;;;;14.10;100.00;101006.47;3584426;40;20347;-44
2021/08/11 04:48:25;;;;;;;31.08;18.70;;;;;;;14.42;100.00;101004.38;3581326;40;20060;-43
2021/08/11 04:50:51;;;;;;;24.63;17.95;;;;;;;14.21;100.00;101012.66;3583183;40;20072;-44
2021/08/11 04:53:18;;;;;;;26.60;18.15;;;;;;;14.38;100.00;101007.78;3584079;40;20445;-45
2021/08/11 04:55:45;;;;;;;29.67;18.48;;;;;;;14.37;100.00;101013.75;3583862;40;20076;-45
2021/08/11 04:58:12;;;;;;;38.60;17.27;;;;;;;14.45;100.00;101018.16;3584114;40;20374;-44
2021/08/11 05:00:39;;;;;;;37.90;18.38;;;;;;;14.62;100.00;101018.47;3584066;40;20085;-43
2021/08/11 05:03:06;;;;;;;23.48;16.55;;;;;;;14.54;100.00;101025.22;3583859;40;20052;-43
2021/08/11 05:05:34;;;;;;;38.40;16.85;;;;;;;14.58;100.00;101028.72;3583941;40;20080;-43
2021/08/11 05:08:00;;;;;;;27.00;16.92;;;;;;;14.59;100.00;101023.56;3583819;40;20088;-44
2021/08/11 05:10:27;;;;;;;25.48;17.25;;;;;;;14.51;100.00;101030.31;3583715;40;20092;-46
2021/08/11 05:12:54;;;;;;;23.55;18.42;;;;;;;14.36;100.00;101037.78;3582554;40;20047;-47
2021/08/11 05:15:21;;;;;;;25.33;17.90;;;;;;;14.61;100.00;101033.91;3584123;40;20076;-44
2021/08/11 05:17:48;;;;;;;22.33;16.92;;;;;;;14.70;100.00;101049.50;3583774;40;20076;-46
2021/08/11 05:20:16;;;;;;;26.45;16.90;;;;;;;14.66;100.00;101042.59;3583946;40;20092;-44
2021/08/11 05:22:43;;;;;;;29.33;16.90;;;;;;;14.85;100.00;101039.41;3584099;40;20048;-43
2021/08/11 05:25:10;;;;;;;25.75;17.55;;;;;;;15.03;100.00;101049.13;3583766;40;20112;-43
2021/08/11 05:27:37;;;;;;;32.13;18.90;;;;;;;14.81;100.00;101047.94;3583832;40;20466;-44
2021/08/11 05:30:07;;;;;;;27.98;18.95;;;;;;;14.78;100.00;101050.47;3585375;40;20084;-45
2021/08/11 05:32:35;;;;;;;29.45;19.63;;;;;;;14.61;100.00;101057.13;3585357;40;20528;-45
2021/08/11 05:35:03;;;;;;;29.00;19.67;;;;;;;14.50;100.00;101054.34;3585071;40;20096;-43
2021/08/11 05:37:30;;;;;;;33.53;21.00;;;;;;;15.16;100.00;101053.59;3585120;40;20092;-45
2021/08/11 05:39:56;;;;;;;25.35;18.42;;;;;;;15.08;100.00;101051.75;3584887;40;20088;-44
2021/08/11 05:42:23;;;;;;;28.98;19.48;;;;;;;15.17;100.00;101057.03;3585269;40;20080;-44
2021/08/11 05:44:51;;;;;;;27.58;20.02;;;;;;;15.13;100.00;101058.69;3585297;40;20062;-44
2021/08/11 05:47:18;;;;;;;28.90;20.65;;;;;;;15.30;100.00;101061.50;3584946;40;20084;-45
2021/08/11 05:49:45;;;;;;;32.22;19.90;;;;;;;15.25;100.00;101066.59;3585241;40;20123;-46
2021/08/11 05:52:12;;;;;;;32.17;21.63;;;;;;;15.23;100.00;101064.84;3585304;40;20485;-45
2021/08/11 05:54:39;;;;;;;29.60;20.92;;;;;;;15.40;100.00;101063.34;3585316;40;20073;-44
2021/08/11 05:57:08;;;;;;;28.45;20.55;;;;;;;15.38;100.00;101069.31;3585094;40;20437;-46
2021/08/11 05:59:36;;;;;;;26.98;19.73;;;;;;;15.53;100.00;101074.69;3585360;40;20060;-46
2021/08/11 06:02:03;;;;;;;30.63;21.17;;;;;;;15.44;100.00;101082.31;3585068;40;20068;-47
2021/08/11 06:04:34;;;;;;;31.60;21.00;;;;;;;15.46;100.00;101084.03;3584988;40;20079;-45
2021/08/11 06:07:01;;;;;;;32.90;21.25;;;;;;;15.45;100.00;101082.31;3584920;40;20044;-45
2021/08/11 06:09:28;;;;;;;33.33;21.65;;;;;;;15.24;100.00;101085.47;3585119;40;20698;-44
2021/08/11 06:11:55;;;;;;;29.58;21.58;;;;;;;15.51;100.00;101074.63;3585297;40;20048;-46
2021/08/11 06:14:22;;;;;;;32.78;21.38;;;;;;;15.44;100.00;101083.19;3585027;40;20061;-44
2021/08/11 06:16:49;;;;;;;28.45;21.63;;;;;;;15.61;100.00;101091.09;3584717;40;20059;-44
2021/08/11 06:19:17;;;;;;;27.50;19.92;;;;;;;15.62;100.00;101091.97;3585181;40;20054;-44
2021/08/11 06:21:44;;;;;;;30.50;21.30;;;;;;;15.68;100.00;101100.69;3585377;40;20100;-44
2021/08/11 06:24:11;;;;;;;28.95;21.70;;;;;;;16.03;100.00;101095.88;3585084;40;20088;-44
2021/08/11 06:26:39;;;;;;;27.45;21.83;;;;;;;15.90;100.00;101098.31;3584924;40;20092;-48
2021/08/11 06:29:06;;;;;;;30.13;22.02;;;;;;;16.01;100.00;101097.59;3585208;40;20207;-46
2021/08/11 06:31:33;;;;;;;29.65;22.15;;;;;;;16.05;100.00;101101.09;3584512;40;20092;-44
2021/08/11 06:34:00;;;;;;;31.17;20.90;;;;;;;16.06;100.00;101099.38;3584686;40;20052;-46
2021/08/11 06:36:27;;;;;;;29.50;21.20;;;;;;;15.90;100.00;101101.81;3584869;40;20076;-45
2021/08/11 06:38:54;;;;;;;28.95;20.33;;;;;;;15.91;100.00;101111.28;3584613;40;20096;-44
2021/08/11 06:41:21;;;;;;;25.55;19.20;;;;;;;15.73;100.00;101111.06;3585105;40;20092;-44
2021/08/11 06:43:48;;;;;;;27.60;21.77;;;;;;;16.19;100.00;101114.13;3584755;40;20093;-45
2021/08/11 06:46:15;;;;;;;27.58;20.83;;;;;;;16.09;100.00;101115.78;3584704;40;20350;-45
2021/08/11 06:48:43;;;;;;;28.42;20.75;;;;;;;16.25;100.00;101117.63;3584932;40;20037;-44
2021/08/11 06:51:10;;;;;;;29.88;21.55;;;;;;;16.29;100.00;101113.38;3585204;40;20349;-47
2021/08/11 06:53:38;;;;;;;27.88;19.90;;;;;;;16.23;100.00;101116.75;3584287;40;20060;-46
2021/08/11 06:56:06;;;;;;;29.70;20.90;;;;;;;16.16;100.00;101120.13;3584712;40;20053;-46
2021/08/11 06:58:35;;;;;;;30.40;21.48;;;;;;;16.42;100.00;101117.78;3584653;40;20065;-44
2021/08/11 07:01:06;;;;;;;27.13;20.77;;;;;;;16.91;100.00;101115.59;3584869;40;20364;-47
2021/08/11 07:03:33;;;;;;;30.02;20.90;;;;;;;16.93;100.00;101121.66;3584873;40;20041;-45
2021/08/11 07:06:01;;;;;;;28.30;21.70;;;;;;;16.81;100.00;101116.38;3584697;40;20040;-45
2021/08/11 07:08:28;;;;;;;28.33;20.95;;;;;;;16.67;100.00;101117.97;3584642;40;20064;-48
2021/08/11 07:10:55;;;;;;;31.23;22.80;;;;;;;16.24;100.00;101122.78;3584783;40;20084;-46
2021/08/11 07:13:22;;;;;;;29.83;22.75;;;;;;;16.77;100.00;101120.66;3584738;40;20049;-44
2021/08/11 07:15:49;;;;;;;27.25;21.85;;;;;;;16.78;100.00;101119.84;3584795;40;20080;-44
2021/08/11 07:18:18;;;;;;;29.00;22.48;;;;;;;16.91;100.00;101117.31;3584942;40;20043;-44
2021/08/11 07:20:46;;;;;;;27.38;20.88;;;;;;;16.79;100.00;101118.97;3584781;40;20092;-44
2021/08/11 07:23:14;;;;;;;27.75;20.65;;;;;;;16.82;100.00;101122.44;3585215;40;20057;-46
2021/08/11 07:25:41;;;;;;;30.63;21.33;;;;;;;17.24;100.00;101117.53;3584857;40;20076;-46
2021/08/11 07:28:08;;;;;;;25.30;20.05;;;;;;;17.35;100.00;101127.06;3584661;40;20092;-44
2021/08/11 07:30:37;;;;;;;25.20;19.45;;;;;;;17.47;100.00;101125.41;3584637;40;20049;-45
2021/08/11 07:33:07;;;;;;;23.38;19.17;;;;;;;17.26;100.00;101130.47;3584880;40;20473;-44
2021/08/11 07:35:38;;;;;;;25.33;20.08;;;;;;;17.61;100.00;101132.34;3584693;40;20081;-47
2021/08/11 07:38:06;;;;;;;22.60;19.20;;;;;;;17.47;100.00;101135.78;3584503;40;20096;-45
2021/08/11 07:40:34;;;;;;;21.52;18.52;;;;;;;17.94;100.00;101142.00;3584527;40;20108;-45
2021/08/11 07:43:04;;;;;;;23.15;17.52;;;;;;;18.00;100.00;101144.59;3584468;40;20080;-44
2021/08/11 07:45:32;;;;;;;21.67;17.63;;;;;;;17.98;100.00;101135.94;3584482;40;20060;-45
2021/08/11 07:47:59;;;;;;;21.27;16.60;;;;;;;17.92;100.00;101144.56;3584477;40;20048;-45
2021/08/11 07:50:29;;;;;;;18.48;15.80;;;;;;;18.25;100.00;101135.13;3584112;40;20074;-48
2021/08/11 07:52:56;;;;;;;24.95;15.57;;;;;;;19.02;100.00;101143.81;3584576;40;20100;-44
2021/08/11 07:55:24;;;;;;;17.40;15.15;;;;;;;19.16;100.00;101139.44;3584336;40;20103;-45
2021/08/11 07:57:51;;;;;;;17.65;15.35;;;;;;;18.83;100.00;101137.78;3584336;40;20071;-47
2021/08/11 08:00:20;;;;;;;21.67;15.60;;;;;;;18.94;100.00;101138.63;3584318;40;20059;-46
2021/08/11 08:02:48;;;;;;;18.55;15.15;;;;;;;19.06;99.65;101143.81;3584330;40;20055;-48
2021/08/11 08:05:16;;;;;;;18.45;15.98;;;;;;;18.75;100.00;101142.09;3584459;40;20060;-46
2021/08/11 08:07:43;;;;;;;20.95;16.92;;;;;;;19.10;100.00;101141.22;3584633;40;20048;-45
2021/08/11 08:10:11;;;;;;;18.70;15.65;;;;;;;19.33;98.06;101147.19;3584280;40;20068;-45
2021/08/11 08:12:39;;;;;;;19.63;16.20;;;;;;;19.50;97.38;101153.19;3584455;40;20327;-45
2021/08/11 08:15:07;;;;;;;18.42;15.98;;;;;;;19.32;99.08;101148.06;3584303;40;20056;-46
2021/08/11 08:17:34;;;;;;;18.80;15.95;;;;;;;19.16;97.94;101154.16;3584029;40;20076;-46
2021/08/11 08:20:14;;;;;;;17.25;14.70;;;;;;;19.12;97.47;101155.03;3584287;40;20092;-45
2021/08/11 08:22:41;;;;;;;20.17;16.40;;;;;;;19.26;98.13;101163.66;3584336;40;20073;-44
2021/08/11 08:25:09;;;;;;;21.38;17.42;;;;;;;19.10;100.00;101164.56;3584334;40;20107;-44
2021/08/11 08:27:38;;;;;;;18.48;16.48;;;;;;;19.37;96.65;101158.44;3584168;40;20089;-43
2021/08/11 08:30:09;;;;;;;19.80;15.20;;;;;;;19.33;96.45;101163.66;3584366;40;20416;-45
2021/08/11 08:32:36;;;;;;;17.23;15.18;;;;;;;19.27;98.12;101167.97;3584135;40;20085;-45
2021/08/11 08:35:03;;;;;;;17.77;15.75;;;;;;;19.13;98.89;101169.75;3584321;40;20079;-47
2021/08/11 08:37:38;;;;;;;16.23;14.25;;;;;;;19.55;99.13;101166.16;3584332;40;20059;-47
2021/08/11 08:40:09;;;;;;;14.20;12.88;;;;;;;19.98;96.02;101172.06;3584605;40;20493;-44
2021/08/11 08:42:37;;;;;;;13.05;11.82;;;;;;;19.93;95.91;101168.63;3583612;40;20052;-48
2021/08/11 08:45:06;;;;;;;14.55;12.63;;;;;;;20.28;95.55;101168.41;3584136;40;20067;-46
2021/08/11 08:47:36;;;;;;;15.70;11.52;;;;;;;19.73;94.59;101166.13;3583881;40;20339;-44
2021/08/11 08:50:08;;;;;;;12.45;11.15;;;;;;;20.64;93.66;101166.44;3584163;40;20056;-44
2021/08/11 08:52:37;;;;;;;12.10;10.60;;;;;;;20.91;86.83;101169.69;3583912;40;20076;-48
2021/08/11 08:55:07;;;;;;;11.23;9.70;;;;;;;20.15;87.32;101174.56;3584193;40;20612;-44
2021/08/11 08:57:35;;;;;;;9.50;8.60;;;;;;;20.31;89.91;101176.19;3583896;40;20053;-43
2021/08/11 09:00:07;;;;;;;11.40;10.23;;;;;;;20.13;91.05;101163.31;3583720;40;20089;-46
2021/08/11 09:02:39;;;;;;;11.63;9.85;;;;;;;20.68;84.86;101175.09;3584189;40;20052;-44
2021/08/11 09:05:11;;;;;;;11.20;8.93;;;;;;;20.78;85.34;101171.53;3585508;40;20427;-50
2021/08/11 09:07:44;;;;;;;9.02;7.35;;;;;;;20.96;86.63;101180.94;3585526;40;20064;-45
2021/08/11 09:10:26;;;;;;;8.85;7.30;;;;;;;20.41;90.49;101184.81;3585271;40;20347;-45
2021/08/11 09:13:07;;;;;;;9.32;7.50;;;;;;;20.72;86.95;101184.63;3584379;40;20140;-45
2021/08/11 09:15:45;;;;;;;;;;;;;;;20.48;82.84;101181.34;3585980;40;20072;-45
2021/08/11 09:18:17;;;;;;;8.93;7.18;;;;;;;21.17;83.62;101178.13;3585533;40;19933;-43
2021/08/11 09:21:11;;;;;;;8.57;6.97;;;;;;;21.49;80.30;101167.38;3585258;40;20483;-44
2021/08/11 09:23:43;;;;;;;11.13;6.90;;;;;;;21.51;79.51;101172.56;3582871;40;20052;-46
2021/08/11 09:26:12;;;;;;;8.82;6.30;;;;;;;21.09;81.51;101179.94;3585250;40;20081;-44
2021/08/11 09:28:41;;;;;;;9.32;6.82;;;;;;;21.62;82.44;101183.72;3585402;40;20068;-43
2021/08/11 09:31:30;;;;;;;7.43;6.10;;;;;;;22.30;80.73;101181.09;3585323;40;20088;-45
2021/08/11 09:34:03;;;;;;;7.50;6.57;;;;;;;21.79;77.24;101183.53;3585294;40;20425;-44
2021/08/11 09:36:59;;;;;;;8.48;6.20;;;;;;;22.21;74.38;101184.72;3584990;40;20625;-47
2021/08/11 09:39:37;;;;;;;6.28;5.50;;;;;;;22.01;76.76;101186.72;3580378;40;20435;-43
2021/08/11 09:42:05;;;;;;;7.05;5.43;;;;;;;21.37;82.48;101187.50;3585350;40;20226;-43
2021/08/11 09:44:33;;;;;;;4.90;4.35;;;;;;;21.73;76.91;101191.44;3585550;40;20090;-45
2021/08/11 09:47:11;;;;;;;8.10;6.18;;;;;;;21.26;76.34;101180.63;3583976;40;20060;-43
2021/08/11 09:49:38;;;;;;;5.13;4.60;;;;;;;21.88;74.95;101180.78;3585332;40;20079;-45
2021/08/11 09:52:05;;;;;;;7.05;5.40;;;;;;;22.46;70.28;101185.19;3585252;40;20101;-46
2021/08/11 09:54:32;;;;;;;5.50;4.63;;;;;;;22.71;74.45;101179.59;3585193;40;20073;-45
2021/08/11 09:57:00;;;;;;;7.15;5.00;;;;;;;23.01;67.43;101188.66;3585371;40;20092;-45
2021/08/11 09:59:27;;;;;;;5.65;4.63;;;;;;;22.99;69.07;101188.72;3585223;40;20088;-46
2021/08/11 10:02:16;;;;;;;6.53;4.10;;;;;;;24.03;64.75;101191.03;3584788;40;20471;-44
2021/08/11 10:04:44;;;;;;;5.88;4.32;;;;;;;25.92;58.26;101198.44;3585030;40;20033;-44
2021/08/11 10:07:12;;;;;;;5.07;4.10;;;;;;;27.07;52.69;101194.75;3584594;40;20047;-46
2021/08/11 10:09:40;;;;;;;4.32;3.40;;;;;;;28.23;49.90;101205.41;3584797;40;20059;-49
2021/08/11 10:12:29;;;;;;;3.45;3.10;;;;;;;31.14;46.49;101214.19;3584670;40;20084;-47
2021/08/11 10:15:00;;;;;;;5.28;3.80;;;;;;;29.81;44.97;101202.19;3584497;40;20072;-46
2021/08/11 10:17:31;;;;;;;4.63;3.60;;;;;;;30.57;44.50;101206.47;3584772;40;20041;-45
2021/08/11 10:19:58;;;;;;;6.18;4.38;;;;;;;30.09;42.74;101213.19;3584980;40;20100;-49
2021/08/11 10:22:27;;;;;;;6.97;5.28;;;;;;;27.66;46.81;101197.88;3585141;40;20567;-45
2021/08/11 10:24:55;;;;;;;6.07;4.60;;;;;;;28.52;46.97;101204.25;3584916;40;20084;-44
2021/08/11 10:27:22;;;;;;;4.82;3.45;;;;;;;27.81;45.87;101203.50;3584975;40;20450;-48
2021/08/11 10:32:00;;;;;;;;;;;;;;;26.08;50.33;101198.84;2618661;31;20372;-46
2021/08/11 10:34:29;;;;;;;5.45;3.53;;;;;;;26.54;46.66;101213.19;2618125;36;20468;-46
2021/08/11 10:36:57;;;;;;;4.97;3.90;;;;;;;29.46;40.41;101222.25;2618067;31;20058;-48
2021/08/11 10:39:25;;;;;;;4.28;3.55;;;;;;;29.16;43.67;101212.13;2618516;31;20038;-47
2021/08/11 10:41:52;;;;;;;4.45;3.85;;;;;;;31.24;35.50;101220.72;2618182;31;20065;-46
2021/08/11 10:44:22;;;;;;;7.85;3.85;;;;;;;31.67;35.54;101216.69;2618003;36;20038;-49
2021/08/11 10:47:00;;;;;;;4.90;3.60;;;;;;;32.62;34.24;101221.97;2618617;31;20030;-45
2021/08/11 10:49:29;;;;;;;6.95;3.53;;;;;;;33.78;30.79;101222.06;2618059;36;20077;-43
2021/08/11 10:52:14;;;;;;;4.53;3.78;;;;;;;33.33;32.75;101220.47;2618284;36;20042;-44
2021/08/11 10:54:52;;;;;;;3.95;3.00;;;;;;;34.02;29.59;101225.00;2618274;31;20065;-46
2021/08/11 10:57:34;;;;;;;4.53;3.50;;;;;;;33.63;29.77;101218.56;2581711;36;2004404;-46
2021/08/11 11:00:02;;;;;;;4.07;3.55;;;;;;;32.60;31.99;101215.91;2618035;36;20153;-47
2021/08/11 11:02:39;;;;;;;3.97;3.58;;;;;;;33.15;30.76;101219.78;2618053;36;20049;-46
2021/08/11 11:05:22;;;;;;;4.07;3.67;;;;;;;33.41;29.99;101216.34;2617885;36;20035;-49
2021/08/11 11:10:40;;;;;;;4.63;3.72;;;;;;;34.82;28.12;101217.09;2618996;31;20034;-48
2021/08/11 11:13:33;;;;;;;4.35;3.58;;;;;;;35.45;27.66;101227.78;2618700;31;20033;-49
2021/08/11 11:16:03;;;;;;;3.88;3.40;;;;;;;35.55;26.26;101225.38;2582402;31;2004358;-46
2021/08/11 11:18:30;;;;;;;4.57;3.38;;;;;;;34.60;28.45;101221.19;2618193;31;20170;-47
2021/08/11 11:20:58;;;;;;;3.70;3.35;;;;;;;32.29;32.34;101222.09;2618068;36;20030;-49
2021/08/11 11:23:32;;;;;;;4.28;3.60;;;;;;;31.31;32.26;101218.63;2618559;31;20053;-46
2021/08/11 11:26:02;;;;;;;3.63;3.33;;;;;;;31.61;31.66;101221.44;2617384;36;20081;-43